Data for 09/19/2008

Time Sea-Level Adjusted Pressure Absolute Pressure Temperature Relative Humidity Dew Point   
(mb) (inHg) (mb) (inHg) (C) (F) (%) (C) (F)
00:05 1021 30.15 850 25.1 14.3 57.8 27 -4.6 23.7
00:10 1021 30.15 850 25.1 15.3 59.5 27 -3.7 25.3
00:15 1021 30.15 850 25.1 15.4 59.7 26 -3.7 25.3
00:20 1021 30.15 850 25.1 15.1 59.2 28 -3.2 26.2
00:25 1021 30.15 850 25.1 14.8 58.7 27 -3.9 25
00:30 1021 30.15 850 25.1 15.3 59.5 27 -3.7 25.3
00:35 1021 30.15 850 25.1 15.4 59.8 28 -3 26.6
00:40 1021 30.15 850 25.1 15.2 59.3 29 -2.8 26.9
00:45 1021 30.15 850 25.1 15.2 59.4 27 -3.5 25.8
00:50 1021 30.15 850 25.1 15.3 59.5 28 -3 26.6
00:55 1021 30.15 850 25.1 15.3 59.5 28 -3.2 26.3
01:00 1021 30.15 850 25.1 15.3 59.6 28 -2.8 26.9
01:05 1021 30.15 850 25.1 15 59 29 -2.8 26.9
01:10 1021 30.15 850 25.1 14.6 58.3 30 -2.7 27.2
01:15 1021 30.15 850 25.1 14.5 58.2 31 -2.3 27.9
01:20 1021 30.15 850 25.1 14.4 58 30 -3.1 26.5
01:25 1021 30.15 850 25.1 15.2 59.3 28 -3.1 26.4
01:30 1021 30.15 850 25.1 15.5 59.9 28 -2.8 26.9
01:35 1021 30.15 850 25.1 15.5 59.8 28 -2.7 27.1
01:40 1021 30.15 850 25.1 15.4 59.8 29 -2.4 27.6
01:45 1021 30.15 850 25.1 15.1 59.2 30 -2.4 27.6
01:50 1021 30.15 850 25.1 14.9 58.8 30 -2.4 27.6
01:55 1021 30.15 850 25.1 14.8 58.7 30 -2.5 27.5
02:00 1021 30.15 850 25.1 14.8 58.7 30 -2.6 27.3
02:05 1021 30.15 850 25.1 14.9 58.8 31 -2.1 28.2
02:10 1021 30.15 850 25.1 14.3 57.8 32 -1.9 28.5
02:15 1021 30.15 850 25.1 14.1 57.3 33 -2 28.4
02:20 1021 30.15 850 25.1 14.1 57.3 32 -2.2 28.1
02:25 1021 30.15 850 25.1 14.5 58.2 30 -2.6 27.3
02:30 1021 30.15 850 25.1 15.1 59.2 30 -2.3 27.9
02:35 1021 30.15 850 25.1 14.9 58.8 31 -2 28.3
02:40 1021 30.15 850 25.1 14.4 57.9 32 -1.9 28.5
02:45 1021 30.15 850 25.1 14.1 57.3 33 -2 28.5
02:50 1021 30.15 850 25.1 14 57.1 33 -2 28.5
02:55 1021 30.15 850 25.1 13.8 56.9 34 -1.7 28.9
03:00 1021 30.15 850 25.1 13.6 56.5 35 -1.7 29
03:05 1021 30.15 850 25.1 13.5 56.3 35 -1.6 29
03:10 1021 30.15 850 25.1 13.2 55.8 36 -1.6 29.2
03:15 1021 30.15 850 25.1 12.8 55.1 39 -0.8 30.6
03:20 1021 30.15 850 25.1 12.4 54.3 39 -1 30.1
03:25 1021 30.15 850 25.1 12.4 54.4 38 -1.4 29.4
03:30 1021 30.15 850 25.1 13 55.4 35 -2 28.4
03:35 1021 30.15 850 25.1 13.7 56.7 33 -2.1 28.1
03:40 1021 30.15 850 25.1 14.1 57.3 34 -1.5 29.4
03:45 1021 30.15 850 25.1 13.5 56.3 35 -1.5 29.3
03:50 1021 30.15 850 25.1 13.6 56.5 35 -1.5 29.3
03:55 1021 30.15 850 25.1 13.4 56.2 36 -1.2 29.9
04:00 1021 30.15 850 25.1 13.2 55.8 37 -1.2 29.8
04:05 1021 30.15 850 25.1 13 55.4 38 -0.9 30.4
04:10 1021 30.15 850 25.1 12.6 54.7 39 -1.1 30
04:15 1021 30.15 850 25.1 12.9 55.3 37 -1.5 29.3
04:20 1021 30.15 850 25.1 13.5 56.2 37 -0.9 30.3
04:25 1021 30.15 850 25.1 12.8 55.1 39 -0.9 30.4
04:30 1021 30.15 850 25.1 12.6 54.6 39 -1 30.1
04:35 1021 30.15 850 25.1 12.9 55.1 36 -1.8 28.8
04:40 1021 30.15 850 25.1 13.3 56 36 -1.3 29.7
04:45 1021 30.15 850 25.1 13.1 55.5 38 -0.9 30.4
04:50 1021 30.15 850 25.1 12.7 54.9 38 -1 30.2
04:55 1021 30.15 850 25.1 13 55.3 36 -1.6 29.2
05:00 1021 30.15 850 25.1 13.3 56 36 -1.2 29.9
05:05 1021 30.15 850 25.1 13 55.4 38 -1 30.2
05:10 1021 30.15 850 25.1 12.6 54.7 39 -0.8 30.5
05:15 1021 30.15 850 25.1 12.6 54.7 39 -1 30.2
05:20 1021 30.15 850 25.1 12.6 54.7 39 -0.9 30.3
05:25 1021 30.15 850 25.1 12.6 54.7 39 -1 30.2
05:30 1021 30.15 850 25.1 12.7 54.9 38 -1.2 29.8
05:35 1021 30.15 850 25.1 12.9 55.1 38 -1 30.2
05:40 1021 30.15 850 25.1 12.8 55 37 -1.3 29.6
05:45 1021 30.15 850 25.1 12.9 55.2 37 -1.3 29.6
05:50 1021 30.15 850 25.1 13.2 55.7 36 -1.6 29.1
05:55 1021 30.15 850 25.1 13.5 56.4 36 -1.3 29.7
06:00 1021 30.15 850 25.1 13.3 55.9 38 -0.7 30.8
06:05 1021 30.15 850 25.1 12.5 54.6 39 -0.8 30.5
06:10 1021 30.15 850 25.1 12.4 54.3 40 -0.7 30.8
06:15 1021 30.15 850 25.1 11.7 53.1 44 -0 32
06:20 1021 30.15 850 25.1 11.2 52.2 43 -0.8 30.6
06:25 1021 30.15 850 25.1 11.2 52.2 44 -0.5 31.1
06:30 1021 30.15 850 25.1 11.2 52.1 43 -0.9 30.3
06:35 1021 30.15 850 25.1 11.2 52.2 43 -0.7 30.7
06:40 1021 30.15 850 25.1 11.2 52.2 44 -0.6 30.9
06:45 1021 30.15 850 25.1 11.2 52.2 45 -0.1 31.8
06:50 1021 30.15 850 25.1 10.8 51.4 45 -0.7 30.7
06:55 1021 30.15 850 25.1 11.2 52.2 44 -0.6 31
07:00 1021 30.15 850 25.1 11.2 52.2 47 0.3 32.5
07:05 1021 30.15 850 25.1 10.4 50.6 47 -0.4 31.4
07:10 1021 30.15 850 25.1 10.2 50.4 45 -1.1 30
07:15 1021 30.15 850 25.1 10.8 51.5 45 -0.5 31
07:20 1021 30.15 850 25.1 10.8 51.4 46 -0.4 31.2
07:25 1021 30.15 850 25.1 11.2 52.1 45 -0.2 31.6
07:30 1021 30.15 850 25.1 11.4 52.4 44 -0.5 31.1
07:35 1021 30.15 850 25.1 11.5 52.7 42 -1 30.3
07:40 1021 30.15 851 25.13 11.8 53.3 41 -0.8 30.5
07:45 1021 30.15 851 25.13 12 53.7 40 -1.3 29.7
07:50 1021 30.15 851 25.13 12.7 54.8 38 -1.3 29.6
07:55 1021 30.15 851 25.13 12.9 55.2 37 -1.2 29.8
08:00 1021 30.15 851 25.13 12.9 55.2 38 -0.9 30.4
08:05 1021 30.15 851 25.13 12.8 55.1 38 -1.1 30.1
08:10 1021 30.15 851 25.13 12.5 54.5 44 0.8 33.5
08:15 1021 30.15 851 25.13 11.9 53.4 45 0.3 32.5
08:20 1021 30.15 851 25.13 11.6 53 45 0.1 32.2
08:25 1021 30.15 851 25.13 11.7 53 45 0.2 32.3
08:30 1021 30.15 851 25.13 12 53.6 45 0.4 32.8
08:35 1021 30.15 851 25.13 12.6 54.7 42 -0 32
08:40 1021 30.15 851 25.13 13.5 56.2 38 -0.5 31
08:45 1021 30.15 851 25.13 14.2 57.5 36 -0.4 31.3
08:50 1021 30.15 851 25.13 14.5 58 37 0.1 32.3
08:55 1021 30.15 851 25.13 14.7 58.4 37 0.3 32.5
09:00 1021 30.15 851 25.13 14.9 58.7 37 0.5 32.9
09:05 1021 30.15 851 25.13 15.2 59.4 36 0.3 32.5
09:10 1022 30.18 851 25.13 15.8 60.4 33 -0.2 31.6
09:15 1022 30.18 851 25.13 16.4 61.6 35 1.1 34
09:20 1022 30.18 851 25.13 17.1 62.7 32 0.4 32.7
09:25 1022 30.18 851 25.13 17.7 63.9 31 0.6 33.2
09:30 1022 30.18 851 25.13 17.9 64.2 33 1.4 34.4
09:35 1022 30.18 851 25.13 17.8 64 32 1.2 34.1
09:40 1022 30.18 851 25.13 18.3 64.9 32 1.6 34.9
09:45 1022 30.18 851 25.13 18.6 65.4 33 1.9 35.4
09:50 1022 30.18 851 25.13 17.9 64.2 32 1.3 34.3
09:55 1022 30.18 851 25.13 17.8 64 33 1.2 34.1
10:00 1022 30.18 851 25.13 17.6 63.6 32 0.9 33.7
10:05 1022 30.18 851 25.13 17.5 63.4 31 0.4 32.8
10:10 1022 30.18 851 25.13 17.9 64.2 31 0.6 33.1
10:15 1022 30.18 851 25.13 17.5 63.5 30 -0.1 31.8
10:20 1022 30.18 851 25.13 17.8 64.1 30 0.1 32.1
10:25 1021 30.15 851 25.13 18.5 65.2 30 0.6 33.1
10:30 1021 30.15 851 25.13 19.3 66.7 25 -0.9 30.3
10:35 1021 30.15 851 25.13 19.8 67.6 25 -0.5 31
10:40 1021 30.15 851 25.13 19.8 67.6 26 0 32.1
10:45 1021 30.15 851 25.13 19.8 67.7 27 0.6 33
10:50 1021 30.15 851 25.13 20.1 68.2 26 0.2 32.4
10:55 1021 30.15 851 25.13 20 68 27 0.4 32.6
11:00 1021 30.15 851 25.13 20.5 68.9 26 0.5 32.8
11:05 1021 30.15 850 25.1 21.4 70.5 24 0.1 32.2
11:10 1021 30.15 850 25.1 22.1 71.8 25 1.2 34.1
11:15 1021 30.15 850 25.1 22.2 71.9 25 1.4 34.6
11:20 1021 30.15 850 25.1 21.5 70.7 25 1.1 33.9
11:25 1021 30.15 850 25.1 21.4 70.5 26 1.5 34.7
11:30 1021 30.15 850 25.1 21.5 70.7 26 1.1 34.1
11:35 1021 30.15 850 25.1 21.6 70.9 25 0.9 33.6
11:40 1021 30.15 850 25.1 21.9 71.5 25 0.9 33.7
11:45 1021 30.15 850 25.1 22.3 72.1 25 1.4 34.5
11:50 1021 30.15 850 25.1 22 71.6 26 1.8 35.3
11:55 1021 30.15 850 25.1 22.5 72.4 25 1.9 35.4
12:00 1021 30.15 850 25.1 22.7 72.8 25 1.6 34.9
12:05 1021 30.15 850 25.1 22.4 72.3 26 1.9 35.4
12:10 1021 30.15 850 25.1 23.3 73.9 24 2 35.5
12:15 1021 30.15 850 25.1 23.2 73.8 26 2.7 36.8
12:20 1021 30.15 850 25.1 23.5 74.2 25 2.3 36.2
12:25 1021 30.15 850 25.1 24.3 75.8 22 1.4 34.6
12:30 1020 30.12 850 25.1 24.3 75.7 23 2.1 35.7
12:35 1020 30.12 850 25.1 23.3 73.9 23 1.4 34.5
12:40 1020 30.12 850 25.1 23.4 74 22 0.5 32.9
12:45 1020 30.12 850 25.1 24.2 75.6 20 -0.1 31.9
12:50 1020 30.12 850 25.1 24.8 76.7 20 0.5 32.9
12:55 1020 30.12 849 25.07 24.6 76.2 20 0.4 32.7
13:00 1020 30.12 849 25.07 25.7 78.2 19 0.3 32.6
13:05 1020 30.12 849 25.07 25.4 77.7 19 0.5 32.8
13:10 1020 30.12 849 25.07 25.2 77.3 19 0.2 32.3
13:15 1020 30.12 849 25.07 26.2 79.1 18 0.3 32.6
13:20 1020 30.12 849 25.07 25.4 77.7 18 -0.6 30.9
13:25 1020 30.12 849 25.07 25.7 78.2 19 0.3 32.5
13:30 1020 30.12 849 25.07 26.4 79.6 17 -0.4 31.3
13:35 1020 30.12 849 25.07 27.1 80.7 17 -0.1 31.9
13:40 1020 30.12 849 25.07 27 80.5 16 -0.5 31.2
13:45 1020 30.12 849 25.07 27.7 81.9 15 -1 30.2
13:50 1020 30.12 849 25.07 26.3 79.4 17 -0.6 30.9
13:55 1020 30.12 849 25.07 26.2 79.2 16 -1.5 29.2
14:00 1020 30.12 849 25.07 26 78.9 18 -0.2 31.7
14:05 1020 30.12 849 25.07 26.5 79.6 17 -0.2 31.7
14:10 1020 30.12 849 25.07 26.1 79 18 -0 32
14:15 1020 30.12 849 25.07 25.8 78.5 20 1.2 34.1
14:20 1020 30.12 849 25.07 25.3 77.5 18 -0.3 31.5
14:25 1020 30.12 849 25.07 24.9 76.9 20 0.4 32.7
14:30 1019 30.09 849 25.07 25 77.1 19 -0.3 31.5
14:35 1019 30.09 849 25.07 25.5 77.9 17 -0.7 30.7
14:40 1019 30.09 848 25.04 26.6 79.8 15 -1.6 29.1
14:45 1019 30.09 848 25.04 27.1 80.7 15 -1.5 29.4
14:50 1019 30.09 848 25.04 27.3 81.2 15 -1.1 30.1
14:55 1019 30.09 848 25.04 27.7 81.9 14 -1.9 28.6
15:00 1019 30.09 849 25.07 28.6 83.5 13 -1.7 28.9
15:05 1019 30.09 849 25.07 27.6 81.8 15 -1.2 29.9
15:10 1019 30.09 849 25.07 25.8 78.4 18 -0.3 31.4
15:15 1019 30.09 849 25.07 25 77 22 2.4 36.3
15:20 1019 30.09 849 25.07 24.4 75.8 20 0.3 32.5
15:25 1019 30.09 848 25.04 24.6 76.2 21 1 33.7
15:30 1019 30.09 848 25.04 24.3 75.7 21 0.7 33.3
15:35 1019 30.09 848 25.04 24 75.1 21 0.6 33.1
15:40 1019 30.09 848 25.04 23.9 75 21 0.2 32.4
15:45 1019 30.09 848 25.04 23.9 75 20 0.1 32.1
15:50 1019 30.09 849 25.07 24.2 75.5 19 -0.8 30.5
15:55 1019 30.09 849 25.07 24.5 76 19 -0.8 30.6
16:00 1019 30.09 848 25.04 24.9 76.9 17 -1.6 29.2
16:05 1019 30.09 848 25.04 25.6 78.1 17 -1.1 30
16:10 1019 30.09 848 25.04 25.8 78.4 20 1.4 34.5
16:15 1019 30.09 848 25.04 26.1 79 16 -1.3 29.6
16:20 1019 30.09 848 25.04 26 78.9 15 -2.1 28.2
16:25 1019 30.09 848 25.04 25.9 78.6 15 -2.4 27.7
16:30 1019 30.09 848 25.04 25.9 78.6 16 -2 28.5
16:35 1019 30.09 848 25.04 25.7 78.2 17 -0.9 30.5
16:40 1019 30.09 848 25.04 25.4 77.8 16 -1.6 29.1
16:45 1019 30.09 848 25.04 25.5 77.9 16 -2.2 28.1
16:50 1019 30.09 848 25.04 25.5 77.8 16 -2.3 27.8
16:55 1019 30.09 848 25.04 25.8 78.4 16 -1.8 28.8
17:00 1019 30.09 848 25.04 25.9 78.5 15 -2.6 27.4
17:05 1018 30.06 848 25.04 26.2 79.1 16 -1.3 29.6
17:10 1018 30.06 848 25.04 26 78.8 15 -1.9 28.5
17:15 1018 30.06 848 25.04 26.1 78.9 19 0.5 33
17:20 1018 30.06 848 25.04 25.1 77.2 19 0.4 32.6
17:25 1018 30.06 848 25.04 24.8 76.6 19 -0 32
17:30 1018 30.06 848 25.04 25.1 77.2 18 -0.4 31.2
17:35 1018 30.06 847 25.01 25.4 77.7 19 0.6 33.1
17:40 1018 30.06 847 25.01 25.7 78.2 18 -0 31.9
17:45 1018 30.06 847 25.01 25.6 78 17 -1.2 29.8
17:50 1018 30.06 847 25.01 25.5 77.9 17 -1.1 30
17:55 1018 30.06 847 25.01 25.6 78 17 -1.1 30
18:00 1018 30.06 847 25.01 25.4 77.7 17 -1.3 29.6
18:05 1018 30.06 847 25.01 25.3 77.5 16 -1.7 28.9
18:10 1018 30.06 847 25.01 25.3 77.5 17 -1 30.2
18:15 1018 30.06 847 25.01 25.2 77.4 18 -0.4 31.2
18:20 1018 30.06 847 25.01 25.1 77.2 18 -0.7 30.8
18:25 1018 30.06 847 25.01 24.9 76.9 18 -0.6 30.9
18:30 1018 30.06 847 25.01 24.7 76.5 19 -0.3 31.5
18:35 1018 30.06 847 25.01 24.6 76.2 20 0.1 32.1
18:40 1018 30.06 847 25.01 24.4 76 20 0.4 32.7
18:45 1018 30.06 847 25.01 24.3 75.8 19 -0.4 31.3
18:50 1018 30.06 847 25.01 24.1 75.4 22 1.6 34.9
18:55 1018 30.06 847 25.01 23.9 75 20 -0.2 31.6
19:00 1018 30.06 847 25.01 23.8 74.8 20 -0.4 31.3
19:05 1018 30.06 847 25.01 23.7 74.6 20 -0.1 31.7
19:10 1018 30.06 847 25.01 23.5 74.2 20 -0.7 30.8
19:15 1018 30.06 847 25.01 23.3 73.9 20 -0.8 30.6
19:20 1018 30.06 847 25.01 23 73.4 20 -1 30.2
19:25 1018 30.06 847 25.01 22.9 73.3 20 -0.8 30.5
19:30 1018 30.06 847 25.01 22.6 72.6 22 0.1 32.2
19:35 1018 30.06 847 25.01 22 71.5 23 -0.1 31.9
19:40 1018 30.06 847 25.01 21.7 71 23 -0 32
19:45 1018 30.06 847 25.01 21.4 70.5 23 -0.2 31.7
19:50 1018 30.06 847 25.01 21.5 70.6 23 -0.3 31.5
19:55 1018 30.06 847 25.01 21.4 70.5 24 0.2 32.4
20:00 1018 30.06 847 25.01 21.3 70.3 24 0.1 32.3
20:05 1018 30.06 847 25.01 21.1 69.9 25 0.3 32.5
20:10 1018 30.06 847 25.01 21 69.8 24 -0.1 31.8
20:15 1018 30.06 847 25.01 21.1 69.9 24 0 32
20:20 1018 30.06 847 25.01 21 69.7 24 -0 31.9
20:25 1018 30.06 847 25.01 21 69.8 24 -0.2 31.6
20:30 1018 30.06 847 25.01 21.1 70 24 -0.2 31.6
20:35 1018 30.06 847 25.01 21.1 70 24 -0.3 31.4
20:40 1018 30.06 847 25.01 21 69.8 24 -0.1 31.8
20:45 1018 30.06 847 25.01 20.8 69.5 24 -0.1 31.7
20:50 1018 30.06 847 25.01 20.7 69.2 25 -0 31.9
20:55 1018 30.06 847 25.01 20.6 69 25 -0.2 31.6
21:00 1018 30.06 847 25.01 20.6 69 25 -0.1 31.8
21:05 1018 30.06 847 25.01 20.5 68.9 25 -0 32
21:10 1018 30.06 847 25.01 20.3 68.5 25 -0.2 31.7
21:15 1018 30.06 847 25.01 20.1 68.1 26 0.2 32.3
21:20 1018 30.06 847 25.01 19.6 67.4 27 0.3 32.6
21:25 1018 30.06 847 25.01 19.4 66.8 27 -0.1 31.9
21:30 1018 30.06 847 25.01 19.7 67.4 26 -0.2 31.6
21:35 1018 30.06 847 25.01 19.8 67.7 26 -0.1 31.8
21:40 1018 30.06 847 25.01 19.7 67.5 26 -0.2 31.7
21:45 1018 30.06 847 25.01 19.5 67.1 29 1.1 33.9
21:50 1018 30.06 847 25.01 18.9 66 27 -0.3 31.4
21:55 1018 30.06 847 25.01 19 66.3 27 -0.1 31.9
22:00 1018 30.06 847 25.01 18.9 66.1 27 -0.3 31.5
22:05 1018 30.06 847 25.01 19 66.2 28 0 32.1
22:10 1018 30.06 847 25.01 18.8 65.9 28 -0 32
22:15 1018 30.06 847 25.01 18.8 65.9 27 -0.2 31.6
22:20 1018 30.06 847 25.01 18.6 65.6 29 0.5 32.9
22:25 1018 30.06 847 25.01 18.1 64.5 29 0.1 32.2
22:30 1018 30.06 847 25.01 18.2 64.8 29 0.2 32.4
22:35 1018 30.06 847 25.01 18.4 65.1 29 0.2 32.3
22:40 1018 30.06 847 25.01 18.3 64.9 29 0.3 32.5
22:45 1018 30.06 847 25.01 18.1 64.5 30 0.4 32.6
22:50 1018 30.06 847 25.01 17.7 63.8 31 0.6 33.1
22:55 1018 30.06 847 25.01 17.3 63.2 31 0.3 32.5
23:00 1018 30.06 847 25.01 17.5 63.5 31 0.1 32.2
23:05 1018 30.06 847 25.01 17.5 63.6 30 0.1 32.1
23:10 1018 30.06 847 25.01 17.8 64 29 -0.2 31.7
23:15 1018 30.06 847 25.01 18 64.3 29 -0.2 31.7
23:20 1018 30.06 847 25.01 18 64.4 29 -0.2 31.6
23:25 1018 30.06 847 25.01 18.1 64.5 28 -0.4 31.3
23:30 1018 30.06 847 25.01 18.1 64.7 29 -0 31.9
23:35 1018 30.06 847 25.01 17.7 63.8 30 0.1 32.3
23:40 1018 30.06 847 25.01 17.4 63.2 30 -0.1 31.7
23:45 1018 30.06 847 25.01 17.6 63.6 29 -0.5 31.1
23:50 1018 30.06 847 25.01 17.6 63.7 30 -0.3 31.5
23:55 1018 30.06 847 25.01 17.5 63.4 31 0.2 32.4
24:00 1018 30.06 847 25.01 16.9 62.5 33 0.7 33.2